sensor_id;sensor_type;location;lat;lon;timestamp;temperature;humidity
43607;DHT22;29197;44.788;10.366;2022-08-06T00:02:49;31.70;95.50
43607;DHT22;29197;44.788;10.366;2022-08-06T00:05:38;31.70;95.60
43607;DHT22;29197;44.788;10.366;2022-08-06T00:08:31;31.70;95.70
43607;DHT22;29197;44.788;10.366;2022-08-06T00:11:23;31.60;95.70
43607;DHT22;29197;44.788;10.366;2022-08-06T00:14:13;31.60;96.20
43607;DHT22;29197;44.788;10.366;2022-08-06T00:17:04;31.60;95.90
43607;DHT22;29197;44.788;10.366;2022-08-06T00:19:55;31.50;95.90
43607;DHT22;29197;44.788;10.366;2022-08-06T00:22:47;31.50;96.00
43607;DHT22;29197;44.788;10.366;2022-08-06T00:25:37;31.50;96.00
43607;DHT22;29197;44.788;10.366;2022-08-06T00:28:37;31.40;99.90
43607;DHT22;29197;44.788;10.366;2022-08-06T00:31:28;31.40;99.20
43607;DHT22;29197;44.788;10.366;2022-08-06T00:34:20;31.40;98.20
43607;DHT22;29197;44.788;10.366;2022-08-06T00:37:11;31.20;96.50
43607;DHT22;29197;44.788;10.366;2022-08-06T00:40:06;30.90;99.90
43607;DHT22;29197;44.788;10.366;2022-08-06T00:42:57;30.60;97.50
43607;DHT22;29197;44.788;10.366;2022-08-06T00:45:48;30.50;97.50
43607;DHT22;29197;44.788;10.366;2022-08-06T00:48:42;30.50;97.40
43607;DHT22;29197;44.788;10.366;2022-08-06T00:51:42;30.60;97.30
43607;DHT22;29197;44.788;10.366;2022-08-06T00:54:37;30.70;97.30
43607;DHT22;29197;44.788;10.366;2022-08-06T00:57:28;30.80;97.20
43607;DHT22;29197;44.788;10.366;2022-08-06T01:00:18;30.80;97.20
43607;DHT22;29197;44.788;10.366;2022-08-06T01:03:17;30.70;97.20
43607;DHT22;29197;44.788;10.366;2022-08-06T01:06:26;30.40;97.70
43607;DHT22;29197;44.788;10.366;2022-08-06T01:09:36;30.20;97.50
43607;DHT22;29197;44.788;10.366;2022-08-06T01:12:44;30.30;97.40
43607;DHT22;29197;44.788;10.366;2022-08-06T01:15:34;30.40;97.40
43607;DHT22;29197;44.788;10.366;2022-08-06T01:18:52;30.40;96.60
43607;DHT22;29197;44.788;10.366;2022-08-06T01:21:54;29.80;96.40
43607;DHT22;29197;44.788;10.366;2022-08-06T01:28:38;29.70;96.30
43607;DHT22;29197;44.788;10.366;2022-08-06T01:31:36;29.30;98.40
43607;DHT22;29197;44.788;10.366;2022-08-06T01:34:33;29.10;97.70
43607;DHT22;29197;44.788;10.366;2022-08-06T01:37:29;29.10;97.80
43607;DHT22;29197;44.788;10.366;2022-08-06T01:40:29;29.20;97.50
43607;DHT22;29197;44.788;10.366;2022-08-06T01:46:35;28.90;97.60
43607;DHT22;29197;44.788;10.366;2022-08-06T01:49:32;28.80;98.30
43607;DHT22;29197;44.788;10.366;2022-08-06T01:52:42;28.60;98.60
43607;DHT22;29197;44.788;10.366;2022-08-06T01:58:46;28.40;98.80
43607;DHT22;29197;44.788;10.366;2022-08-06T02:01:40;28.10;99.60
43607;DHT22;29197;44.788;10.366;2022-08-06T02:04:43;28.50;99.20
43607;DHT22;29197;44.788;10.366;2022-08-06T02:07:41;28.40;99.30
43607;DHT22;29197;44.788;10.366;2022-08-06T02:10:52;28.50;99.80
43607;DHT22;29197;44.788;10.366;2022-08-06T02:13:43;28.60;99.90
43607;DHT22;29197;44.788;10.366;2022-08-06T02:16:36;28.80;99.90
43607;DHT22;29197;44.788;10.366;2022-08-06T02:19:31;28.80;99.90
43607;DHT22;29197;44.788;10.366;2022-08-06T02:22:41;29.00;99.90
43607;DHT22;29197;44.788;10.366;2022-08-06T02:25:34;28.70;99.90
43607;DHT22;29197;44.788;10.366;2022-08-06T02:28:26;28.80;99.90
43607;DHT22;29197;44.788;10.366;2022-08-06T02:31:17;28.30;99.90
43607;DHT22;29197;44.788;10.366;2022-08-06T02:37:07;29.10;99.90
43607;DHT22;29197;44.788;10.366;2022-08-06T02:40:12;28.60;99.90
43607;DHT22;29197;44.788;10.366;2022-08-06T02:43:08;28.40;99.90
43607;DHT22;29197;44.788;10.366;2022-08-06T03:00:55;28.40;99.90
43607;DHT22;29197;44.788;10.366;2022-08-06T03:03:47;28.50;99.90
43607;DHT22;29197;44.788;10.366;2022-08-06T03:06:46;28.70;99.90
43607;DHT22;29197;44.788;10.366;2022-08-06T03:09:37;28.50;99.90
43607;DHT22;29197;44.788;10.366;2022-08-06T03:12:39;28.40;99.90
43607;DHT22;29197;44.788;10.366;2022-08-06T03:15:30;28.50;99.90
43607;DHT22;29197;44.788;10.366;2022-08-06T03:21:33;28.40;99.90
43607;DHT22;29197;44.788;10.366;2022-08-06T03:24:25;28.50;99.90
43607;DHT22;29197;44.788;10.366;2022-08-06T03:33:00;27.40;99.90
43607;DHT22;29197;44.788;10.366;2022-08-06T03:36:10;27.30;99.90
43607;DHT22;29197;44.788;10.366;2022-08-06T03:39:06;27.40;99.90
43607;DHT22;29197;44.788;10.366;2022-08-06T03:42:02;27.60;99.90
43607;DHT22;29197;44.788;10.366;2022-08-06T03:44:55;27.40;99.90
43607;DHT22;29197;44.788;10.366;2022-08-06T03:47:54;27.40;99.90
43607;DHT22;29197;44.788;10.366;2022-08-06T03:53:45;27.40;99.90
43607;DHT22;29197;44.788;10.366;2022-08-06T03:56:37;27.40;99.90
43607;DHT22;29197;44.788;10.366;2022-08-06T03:59:33;27.50;99.90
43607;DHT22;29197;44.788;10.366;2022-08-06T04:02:46;27.30;99.90
43607;DHT22;29197;44.788;10.366;2022-08-06T04:05:36;27.30;99.90
43607;DHT22;29197;44.788;10.366;2022-08-06T04:08:34;27.20;99.90
43607;DHT22;29197;44.788;10.366;2022-08-06T04:11:25;27.30;99.90
43607;DHT22;29197;44.788;10.366;2022-08-06T04:14:35;27.50;99.90
43607;DHT22;29197;44.788;10.366;2022-08-06T04:17:34;27.30;99.90
43607;DHT22;29197;44.788;10.366;2022-08-06T04:20:29;27.20;99.90
43607;DHT22;29197;44.788;10.366;2022-08-06T04:23:30;27.40;99.90
43607;DHT22;29197;44.788;10.366;2022-08-06T04:26:25;27.40;99.90
43607;DHT22;29197;44.788;10.366;2022-08-06T04:32:10;27.60;98.40
43607;DHT22;29197;44.788;10.366;2022-08-06T04:35:15;27.80;98.40
43607;DHT22;29197;44.788;10.366;2022-08-06T04:38:26;28.10;98.20
43607;DHT22;29197;44.788;10.366;2022-08-06T04:41:17;28.30;98.00
43607;DHT22;29197;44.788;10.366;2022-08-06T04:44:06;28.30;98.00
43607;DHT22;29197;44.788;10.366;2022-08-06T04:47:00;28.30;97.90
43607;DHT22;29197;44.788;10.366;2022-08-06T04:49:51;28.30;97.90
43607;DHT22;29197;44.788;10.366;2022-08-06T04:52:49;28.20;98.20
43607;DHT22;29197;44.788;10.366;2022-08-06T04:55:42;28.30;98.40
43607;DHT22;29197;44.788;10.366;2022-08-06T04:58:50;28.40;98.00
43607;DHT22;29197;44.788;10.366;2022-08-06T05:01:40;28.50;97.80
43607;DHT22;29197;44.788;10.366;2022-08-06T05:07:44;28.60;99.90
43607;DHT22;29197;44.788;10.366;2022-08-06T05:10:53;28.40;99.90
43607;DHT22;29197;44.788;10.366;2022-08-06T05:13:45;28.30;99.90
43607;DHT22;29197;44.788;10.366;2022-08-06T05:16:40;28.30;99.90
43607;DHT22;29197;44.788;10.366;2022-08-06T05:19:43;28.40;99.90
43607;DHT22;29197;44.788;10.366;2022-08-06T05:22:34;28.40;99.90
43607;DHT22;29197;44.788;10.366;2022-08-06T05:25:40;28.50;99.90
43607;DHT22;29197;44.788;10.366;2022-08-06T05:28:42;28.60;99.90
43607;DHT22;29197;44.788;10.366;2022-08-06T05:31:37;28.40;99.90
43607;DHT22;29197;44.788;10.366;2022-08-06T05:34:33;28.30;99.90
43607;DHT22;29197;44.788;10.366;2022-08-06T05:37:24;28.40;99.90
43607;DHT22;29197;44.788;10.366;2022-08-06T05:40:33;28.50;99.90
43607;DHT22;29197;44.788;10.366;2022-08-06T05:43:41;28.60;99.90
43607;DHT22;29197;44.788;10.366;2022-08-06T05:46:51;28.50;99.90
43607;DHT22;29197;44.788;10.366;2022-08-06T05:49:44;28.50;99.90
43607;DHT22;29197;44.788;10.366;2022-08-06T05:52:48;28.40;99.90
43607;DHT22;29197;44.788;10.366;2022-08-06T05:55:43;28.60;99.90
43607;DHT22;29197;44.788;10.366;2022-08-06T05:58:39;28.60;99.90
43607;DHT22;29197;44.788;10.366;2022-08-06T06:01:42;28.70;99.90
43607;DHT22;29197;44.788;10.366;2022-08-06T06:04:31;28.50;99.90
43607;DHT22;29197;44.788;10.366;2022-08-06T06:13:24;28.80;99.90
43607;DHT22;29197;44.788;10.366;2022-08-06T06:22:45;28.90;99.90
43607;DHT22;29197;44.788;10.366;2022-08-06T06:37:43;29.80;99.90
43607;DHT22;29197;44.788;10.366;2022-08-06T06:40:41;29.80;99.90
43607;DHT22;29197;44.788;10.366;2022-08-06T06:43:43;29.90;98.10
43607;DHT22;29197;44.788;10.366;2022-08-06T06:46:45;29.80;98.10
43607;DHT22;29197;44.788;10.366;2022-08-06T06:49:49;29.90;98.20
43607;DHT22;29197;44.788;10.366;2022-08-06T06:52:52;30.10;98.20
43607;DHT22;29197;44.788;10.366;2022-08-06T06:55:44;30.20;97.90
43607;DHT22;29197;44.788;10.366;2022-08-06T06:58:48;30.30;98.00
43607;DHT22;29197;44.788;10.366;2022-08-06T07:01:42;30.20;97.50
43607;DHT22;29197;44.788;10.366;2022-08-06T07:04:41;30.30;97.80
43607;DHT22;29197;44.788;10.366;2022-08-06T07:07:39;30.60;97.60
43607;DHT22;29197;44.788;10.366;2022-08-06T07:10:38;30.70;97.20
43607;DHT22;29197;44.788;10.366;2022-08-06T07:13:32;30.80;97.30
43607;DHT22;29197;44.788;10.366;2022-08-06T07:16:37;31.00;96.80
43607;DHT22;29197;44.788;10.366;2022-08-06T07:22:18;31.60;99.90
43607;DHT22;29197;44.788;10.366;2022-08-06T07:25:13;31.50;96.40
43607;DHT22;29197;44.788;10.366;2022-08-06T07:36:56;32.00;99.90
43607;DHT22;29197;44.788;10.366;2022-08-06T07:39:46;31.90;99.90
43607;DHT22;29197;44.788;10.366;2022-08-06T07:42:37;31.90;99.90
43607;DHT22;29197;44.788;10.366;2022-08-06T07:45:33;31.90;97.30
43607;DHT22;29197;44.788;10.366;2022-08-06T07:48:49;31.90;96.60
43607;DHT22;29197;44.788;10.366;2022-08-06T07:51:43;31.90;95.80
43607;DHT22;29197;44.788;10.366;2022-08-06T07:54:37;31.90;95.90
43607;DHT22;29197;44.788;10.366;2022-08-06T07:57:29;32.00;95.90
43607;DHT22;29197;44.788;10.366;2022-08-06T08:00:41;32.00;96.00
43607;DHT22;29197;44.788;10.366;2022-08-06T08:03:37;31.90;95.80
43607;DHT22;29197;44.788;10.366;2022-08-06T08:06:45;32.00;95.90
43607;DHT22;29197;44.788;10.366;2022-08-06T08:09:36;32.00;95.60
43607;DHT22;29197;44.788;10.366;2022-08-06T08:12:45;32.00;95.50
43607;DHT22;29197;44.788;10.366;2022-08-06T08:15:40;32.00;95.20
43607;DHT22;29197;44.788;10.366;2022-08-06T08:18:31;31.90;94.90
43607;DHT22;29197;44.788;10.366;2022-08-06T08:21:21;31.90;95.10
43607;DHT22;29197;44.788;10.366;2022-08-06T08:24:11;31.90;95.20
43607;DHT22;29197;44.788;10.366;2022-08-06T08:27:04;31.90;95.30
43607;DHT22;29197;44.788;10.366;2022-08-06T08:30:10;31.80;95.20
43607;DHT22;29197;44.788;10.366;2022-08-06T08:33:03;31.80;95.20
43607;DHT22;29197;44.788;10.366;2022-08-06T08:36:04;31.80;95.50
43607;DHT22;29197;44.788;10.366;2022-08-06T08:38:58;31.80;95.70
43607;DHT22;29197;44.788;10.366;2022-08-06T08:41:55;31.80;95.50
43607;DHT22;29197;44.788;10.366;2022-08-06T08:44:50;31.70;95.30
43607;DHT22;29197;44.788;10.366;2022-08-06T08:47:43;31.70;95.60
43607;DHT22;29197;44.788;10.366;2022-08-06T08:50:46;31.70;95.80
43607;DHT22;29197;44.788;10.366;2022-08-06T08:53:43;31.80;95.70
43607;DHT22;29197;44.788;10.366;2022-08-06T08:56:33;31.80;95.50
43607;DHT22;29197;44.788;10.366;2022-08-06T08:59:43;31.80;95.60
43607;DHT22;29197;44.788;10.366;2022-08-06T09:02:47;31.80;96.00
43607;DHT22;29197;44.788;10.366;2022-08-06T09:05:37;31.90;96.10
43607;DHT22;29197;44.788;10.366;2022-08-06T09:08:35;31.90;96.30
43607;DHT22;29197;44.788;10.366;2022-08-06T09:11:45;32.00;96.40
43607;DHT22;29197;44.788;10.366;2022-08-06T09:14:54;32.00;96.10
43607;DHT22;29197;44.788;10.366;2022-08-06T09:17:45;32.00;95.20
43607;DHT22;29197;44.788;10.366;2022-08-06T09:20:54;32.10;95.50
43607;DHT22;29197;44.788;10.366;2022-08-06T09:23:46;32.10;95.50
43607;DHT22;29197;44.788;10.366;2022-08-06T09:27:02;32.10;95.50
43607;DHT22;29197;44.788;10.366;2022-08-06T09:30:16;32.30;95.30
43607;DHT22;29197;44.788;10.366;2022-08-06T09:33:17;32.30;95.20
43607;DHT22;29197;44.788;10.366;2022-08-06T09:36:27;32.30;94.70
43607;DHT22;29197;44.788;10.366;2022-08-06T09:39:29;32.40;94.40
43607;DHT22;29197;44.788;10.366;2022-08-06T09:42:40;32.40;94.70
43607;DHT22;29197;44.788;10.366;2022-08-06T09:45:29;32.30;93.90
43607;DHT22;29197;44.788;10.366;2022-08-06T09:48:30;32.40;94.00
43607;DHT22;29197;44.788;10.366;2022-08-06T09:51:21;32.50;94.50
43607;DHT22;29197;44.788;10.366;2022-08-06T09:54:37;32.50;94.30
43607;DHT22;29197;44.788;10.366;2022-08-06T09:57:39;32.60;94.20
43607;DHT22;29197;44.788;10.366;2022-08-06T10:00:34;32.70;94.20
43607;DHT22;29197;44.788;10.366;2022-08-06T10:03:24;32.80;93.90
43607;DHT22;29197;44.788;10.366;2022-08-06T10:06:33;32.90;93.60
43607;DHT22;29197;44.788;10.366;2022-08-06T10:09:27;32.90;93.30
43607;DHT22;29197;44.788;10.366;2022-08-06T10:12:32;33.00;93.50
43607;DHT22;29197;44.788;10.366;2022-08-06T10:15:28;33.10;93.30
43607;DHT22;29197;44.788;10.366;2022-08-06T10:18:39;33.10;93.10
43607;DHT22;29197;44.788;10.366;2022-08-06T10:24:39;33.40;92.80
43607;DHT22;29197;44.788;10.366;2022-08-06T10:27:37;33.50;92.70
43607;DHT22;29197;44.788;10.366;2022-08-06T10:30:28;33.60;92.50
43607;DHT22;29197;44.788;10.366;2022-08-06T10:33:23;33.70;92.20
43607;DHT22;29197;44.788;10.366;2022-08-06T10:36:22;33.80;91.30
43607;DHT22;29197;44.788;10.366;2022-08-06T10:39:14;33.90;91.70
43607;DHT22;29197;44.788;10.366;2022-08-06T10:42:23;33.90;91.70
43607;DHT22;29197;44.788;10.366;2022-08-06T10:45:16;34.00;91.50
43607;DHT22;29197;44.788;10.366;2022-08-06T10:48:06;34.10;91.50
43607;DHT22;29197;44.788;10.366;2022-08-06T10:51:15;34.20;91.60
43607;DHT22;29197;44.788;10.366;2022-08-06T10:54:25;34.30;91.50
43607;DHT22;29197;44.788;10.366;2022-08-06T10:57:15;34.40;91.40
43607;DHT22;29197;44.788;10.366;2022-08-06T11:00:25;34.60;91.20
43607;DHT22;29197;44.788;10.366;2022-08-06T11:06:18;34.80;90.30
43607;DHT22;29197;44.788;10.366;2022-08-06T11:12:49;35.10;90.20
43607;DHT22;29197;44.788;10.366;2022-08-06T11:15:41;35.20;90.10
43607;DHT22;29197;44.788;10.366;2022-08-06T11:18:31;35.10;89.90
43607;DHT22;29197;44.788;10.366;2022-08-06T11:21:36;35.00;89.80
43607;DHT22;29197;44.788;10.366;2022-08-06T11:24:50;35.00;90.00
43607;DHT22;29197;44.788;10.366;2022-08-06T11:27:51;35.00;90.30
43607;DHT22;29197;44.788;10.366;2022-08-06T11:30:53;35.00;90.40
43607;DHT22;29197;44.788;10.366;2022-08-06T11:34:02;34.90;90.50
43607;DHT22;29197;44.788;10.366;2022-08-06T11:36:54;34.80;90.60
43607;DHT22;29197;44.788;10.366;2022-08-06T11:40:08;34.70;90.90
43607;DHT22;29197;44.788;10.366;2022-08-06T11:42:58;34.60;90.50
43607;DHT22;29197;44.788;10.366;2022-08-06T11:46:18;34.50;90.70
43607;DHT22;29197;44.788;10.366;2022-08-06T11:49:35;34.50;90.80
43607;DHT22;29197;44.788;10.366;2022-08-06T11:52:41;34.40;91.00
43607;DHT22;29197;44.788;10.366;2022-08-06T11:55:31;34.40;91.20
43607;DHT22;29197;44.788;10.366;2022-08-06T11:58:26;34.40;91.50
43607;DHT22;29197;44.788;10.366;2022-08-06T12:01:18;34.30;91.40
43607;DHT22;29197;44.788;10.366;2022-08-06T12:04:39;34.30;91.40
43607;DHT22;29197;44.788;10.366;2022-08-06T12:07:31;34.40;91.70
43607;DHT22;29197;44.788;10.366;2022-08-06T12:10:23;34.50;91.00
43607;DHT22;29197;44.788;10.366;2022-08-06T12:13:36;34.80;90.70
43607;DHT22;29197;44.788;10.366;2022-08-06T12:16:46;35.30;89.50
43607;DHT22;29197;44.788;10.366;2022-08-06T12:22:49;36.70;86.50
43607;DHT22;29197;44.788;10.366;2022-08-06T12:28:33;37.70;84.20
43607;DHT22;29197;44.788;10.366;2022-08-06T12:31:30;38.00;84.60
43607;DHT22;29197;44.788;10.366;2022-08-06T12:34:27;38.10;83.90
43607;DHT22;29197;44.788;10.366;2022-08-06T12:37:18;38.10;84.30
43607;DHT22;29197;44.788;10.366;2022-08-06T12:40:10;38.20;82.50
43607;DHT22;29197;44.788;10.366;2022-08-06T12:43:24;38.30;82.70
43607;DHT22;29197;44.788;10.366;2022-08-06T12:46:33;38.40;82.30
43607;DHT22;29197;44.788;10.366;2022-08-06T12:49:31;38.70;81.40
43607;DHT22;29197;44.788;10.366;2022-08-06T12:52:30;38.90;81.20
43607;DHT22;29197;44.788;10.366;2022-08-06T12:55:20;39.00;79.90
43607;DHT22;29197;44.788;10.366;2022-08-06T12:58:17;39.10;81.20
43607;DHT22;29197;44.788;10.366;2022-08-06T13:01:30;39.20;84.40
43607;DHT22;29197;44.788;10.366;2022-08-06T13:04:44;39.00;84.70
43607;DHT22;29197;44.788;10.366;2022-08-06T13:07:33;38.80;85.30
43607;DHT22;29197;44.788;10.366;2022-08-06T13:16:45;37.90;82.10
43607;DHT22;29197;44.788;10.366;2022-08-06T13:19:55;37.50;83.90
43607;DHT22;29197;44.788;10.366;2022-08-06T13:22:48;37.10;84.50
43607;DHT22;29197;44.788;10.366;2022-08-06T13:25:42;36.70;85.20
43607;DHT22;29197;44.788;10.366;2022-08-06T13:28:39;36.50;86.60
43607;DHT22;29197;44.788;10.366;2022-08-06T13:31:59;36.20;86.70
43607;DHT22;29197;44.788;10.366;2022-08-06T13:34:50;36.00;87.60
43607;DHT22;29197;44.788;10.366;2022-08-06T13:37:48;35.80;88.10
43607;DHT22;29197;44.788;10.366;2022-08-06T13:40:44;35.60;88.30
43607;DHT22;29197;44.788;10.366;2022-08-06T13:43:44;35.40;88.80
43607;DHT22;29197;44.788;10.366;2022-08-06T13:46:43;35.20;89.10
43607;DHT22;29197;44.788;10.366;2022-08-06T13:49:37;35.10;89.80
43607;DHT22;29197;44.788;10.366;2022-08-06T13:52:48;35.00;90.00
43607;DHT22;29197;44.788;10.366;2022-08-06T13:55:47;34.90;90.10
43607;DHT22;29197;44.788;10.366;2022-08-06T13:58:49;34.80;90.30
43607;DHT22;29197;44.788;10.366;2022-08-06T14:01:42;34.70;90.70
43607;DHT22;29197;44.788;10.366;2022-08-06T14:04:32;34.60;90.80
43607;DHT22;29197;44.788;10.366;2022-08-06T14:07:21;34.60;90.90
43607;DHT22;29197;44.788;10.366;2022-08-06T14:10:22;34.50;91.00
43607;DHT22;29197;44.788;10.366;2022-08-06T14:13:16;34.50;91.30
43607;DHT22;29197;44.788;10.366;2022-08-06T14:18:56;34.40;91.40
43607;DHT22;29197;44.788;10.366;2022-08-06T14:21:50;34.30;91.70
43607;DHT22;29197;44.788;10.366;2022-08-06T14:24:41;34.20;91.90
43607;DHT22;29197;44.788;10.366;2022-08-06T14:27:41;34.10;92.00
43607;DHT22;29197;44.788;10.366;2022-08-06T14:30:31;34.00;92.00
43607;DHT22;29197;44.788;10.366;2022-08-06T14:33:25;33.90;91.90
43607;DHT22;29197;44.788;10.366;2022-08-06T14:36:25;33.70;92.00
43607;DHT22;29197;44.788;10.366;2022-08-06T14:39:14;33.60;92.30
43607;DHT22;29197;44.788;10.366;2022-08-06T14:42:24;33.60;92.30
43607;DHT22;29197;44.788;10.366;2022-08-06T14:45:35;33.50;92.50
43607;DHT22;29197;44.788;10.366;2022-08-06T14:48:26;33.60;92.60
43607;DHT22;29197;44.788;10.366;2022-08-06T14:51:17;33.70;92.10
43607;DHT22;29197;44.788;10.366;2022-08-06T14:54:10;33.70;92.10
43607;DHT22;29197;44.788;10.366;2022-08-06T14:57:01;33.60;92.30
43607;DHT22;29197;44.788;10.366;2022-08-06T15:00:03;33.40;92.10
43607;DHT22;29197;44.788;10.366;2022-08-06T15:02:54;33.40;92.30
43607;DHT22;29197;44.788;10.366;2022-08-06T15:05:44;33.50;92.70
43607;DHT22;29197;44.788;10.366;2022-08-06T15:08:52;33.60;92.50
43607;DHT22;29197;44.788;10.366;2022-08-06T15:11:41;33.70;92.30
43607;DHT22;29197;44.788;10.366;2022-08-06T15:14:47;33.70;92.10
43607;DHT22;29197;44.788;10.366;2022-08-06T15:17:38;34.10;91.60
43607;DHT22;29197;44.788;10.366;2022-08-06T15:20:49;34.70;91.30
43607;DHT22;29197;44.788;10.366;2022-08-06T15:23:38;35.20;90.80
43607;DHT22;29197;44.788;10.366;2022-08-06T15:26:41;35.60;89.50
43607;DHT22;29197;44.788;10.366;2022-08-06T15:32:28;36.10;88.60
43607;DHT22;29197;44.788;10.366;2022-08-06T15:35:18;36.30;88.90
43607;DHT22;29197;44.788;10.366;2022-08-06T15:41:09;36.50;86.40
43607;DHT22;29197;44.788;10.366;2022-08-06T15:43:58;36.60;87.90
43607;DHT22;29197;44.788;10.366;2022-08-06T15:46:48;36.60;87.20
43607;DHT22;29197;44.788;10.366;2022-08-06T15:49:38;36.60;87.30
43607;DHT22;29197;44.788;10.366;2022-08-06T15:52:47;36.60;87.20
43607;DHT22;29197;44.788;10.366;2022-08-06T15:55:38;36.70;87.20
43607;DHT22;29197;44.788;10.366;2022-08-06T15:58:28;36.60;87.40
43607;DHT22;29197;44.788;10.366;2022-08-06T16:01:17;36.50;87.90
43607;DHT22;29197;44.788;10.366;2022-08-06T16:04:26;36.50;86.80
43607;DHT22;29197;44.788;10.366;2022-08-06T16:07:18;36.30;86.60
43607;DHT22;29197;44.788;10.366;2022-08-06T16:10:09;36.00;87.10
43607;DHT22;29197;44.788;10.366;2022-08-06T16:13:20;36.00;88.00
43607;DHT22;29197;44.788;10.366;2022-08-06T16:16:10;36.00;88.60
43607;DHT22;29197;44.788;10.366;2022-08-06T16:19:02;36.00;87.80
43607;DHT22;29197;44.788;10.366;2022-08-06T16:22:08;36.00;88.20
43607;DHT22;29197;44.788;10.366;2022-08-06T16:24:57;36.10;87.80
43607;DHT22;29197;44.788;10.366;2022-08-06T16:27:50;36.00;88.20
43607;DHT22;29197;44.788;10.366;2022-08-06T16:30:40;36.00;88.50
43607;DHT22;29197;44.788;10.366;2022-08-06T16:33:50;36.00;87.90
43607;DHT22;29197;44.788;10.366;2022-08-06T16:36:42;36.00;87.90
43607;DHT22;29197;44.788;10.366;2022-08-06T16:39:38;35.90;88.00
43607;DHT22;29197;44.788;10.366;2022-08-06T16:42:47;35.80;88.30
43607;DHT22;29197;44.788;10.366;2022-08-06T16:45:36;35.80;88.60
43607;DHT22;29197;44.788;10.366;2022-08-06T16:48:28;35.70;89.00
43607;DHT22;29197;44.788;10.366;2022-08-06T16:51:17;35.70;88.80
43607;DHT22;29197;44.788;10.366;2022-08-06T16:54:26;35.60;88.30
43607;DHT22;29197;44.788;10.366;2022-08-06T16:57:17;35.60;88.30
43607;DHT22;29197;44.788;10.366;2022-08-06T17:00:08;35.50;88.30
43607;DHT22;29197;44.788;10.366;2022-08-06T17:03:17;35.50;88.50
43607;DHT22;29197;44.788;10.366;2022-08-06T17:06:28;35.40;88.40
43607;DHT22;29197;44.788;10.366;2022-08-06T17:09:21;35.30;88.60
43607;DHT22;29197;44.788;10.366;2022-08-06T17:12:12;35.20;88.80
43607;DHT22;29197;44.788;10.366;2022-08-06T17:15:04;35.20;88.60
43607;DHT22;29197;44.788;10.366;2022-08-06T17:18:02;35.10;89.00
43607;DHT22;29197;44.788;10.366;2022-08-06T17:20:51;35.10;89.60
43607;DHT22;29197;44.788;10.366;2022-08-06T17:23:44;35.00;89.80
43607;DHT22;29197;44.788;10.366;2022-08-06T17:26:34;34.90;90.10
43607;DHT22;29197;44.788;10.366;2022-08-06T17:29:31;34.90;90.30
43607;DHT22;29197;44.788;10.366;2022-08-06T17:32:34;34.80;90.40
43607;DHT22;29197;44.788;10.366;2022-08-06T17:35:43;34.70;89.90
43607;DHT22;29197;44.788;10.366;2022-08-06T17:38:54;34.60;90.00
43607;DHT22;29197;44.788;10.366;2022-08-06T17:41:43;34.50;99.60
43607;DHT22;29197;44.788;10.366;2022-08-06T17:44:33;34.20;91.60
43607;DHT22;29197;44.788;10.366;2022-08-06T17:47:23;34.10;90.60
43607;DHT22;29197;44.788;10.366;2022-08-06T17:50:33;33.90;90.60
43607;DHT22;29197;44.788;10.366;2022-08-06T17:53:28;33.80;91.00
43607;DHT22;29197;44.788;10.366;2022-08-06T17:56:40;33.60;91.30
43607;DHT22;29197;44.788;10.366;2022-08-06T18:02:31;33.40;99.90
43607;DHT22;29197;44.788;10.366;2022-08-06T18:05:23;33.30;92.40
43607;DHT22;29197;44.788;10.366;2022-08-06T18:08:26;33.20;92.70
43607;DHT22;29197;44.788;10.366;2022-08-06T18:11:22;33.10;93.00
43607;DHT22;29197;44.788;10.366;2022-08-06T18:14:13;33.00;93.20
43607;DHT22;29197;44.788;10.366;2022-08-06T18:17:19;32.90;93.30
43607;DHT22;29197;44.788;10.366;2022-08-06T18:20:29;32.90;93.50
43607;DHT22;29197;44.788;10.366;2022-08-06T18:23:25;32.80;93.50
43607;DHT22;29197;44.788;10.366;2022-08-06T18:26:21;32.70;93.70
43607;DHT22;29197;44.788;10.366;2022-08-06T18:29:20;32.60;94.00
43607;DHT22;29197;44.788;10.366;2022-08-06T18:32:30;32.60;94.00
43607;DHT22;29197;44.788;10.366;2022-08-06T18:35:21;32.50;99.90
43607;DHT22;29197;44.788;10.366;2022-08-06T18:38:14;32.40;94.20
43607;DHT22;29197;44.788;10.366;2022-08-06T18:41:04;32.30;94.30
43607;DHT22;29197;44.788;10.366;2022-08-06T18:44:02;32.20;94.40
43607;DHT22;29197;44.788;10.366;2022-08-06T18:46:53;32.20;94.30
43607;DHT22;29197;44.788;10.366;2022-08-06T18:49:58;32.20;94.30
43607;DHT22;29197;44.788;10.366;2022-08-06T18:55:37;32.10;99.90
43607;DHT22;29197;44.788;10.366;2022-08-06T19:01:41;32.00;93.50
43607;DHT22;29197;44.788;10.366;2022-08-06T19:04:38;31.90;93.80
43607;DHT22;29197;44.788;10.366;2022-08-06T19:07:28;31.80;93.80
43607;DHT22;29197;44.788;10.366;2022-08-06T19:10:36;31.70;96.80
43607;DHT22;29197;44.788;10.366;2022-08-06T19:16:34;31.60;93.80
43607;DHT22;29197;44.788;10.366;2022-08-06T19:19:36;31.60;94.00
43607;DHT22;29197;44.788;10.366;2022-08-06T19:22:46;31.50;93.90
43607;DHT22;29197;44.788;10.366;2022-08-06T19:25:41;31.50;93.80
43607;DHT22;29197;44.788;10.366;2022-08-06T19:28:50;31.40;93.70
43607;DHT22;29197;44.788;10.366;2022-08-06T19:31:39;31.40;93.70
43607;DHT22;29197;44.788;10.366;2022-08-06T19:34:30;31.40;93.10
43607;DHT22;29197;44.788;10.366;2022-08-06T19:37:21;31.30;92.70
43607;DHT22;29197;44.788;10.366;2022-08-06T19:40:30;31.20;92.70
43607;DHT22;29197;44.788;10.366;2022-08-06T19:43:39;31.20;92.40
43607;DHT22;29197;44.788;10.366;2022-08-06T19:46:48;31.20;92.40
43607;DHT22;29197;44.788;10.366;2022-08-06T19:49:43;31.10;92.30
43607;DHT22;29197;44.788;10.366;2022-08-06T19:52:40;31.10;92.30
43607;DHT22;29197;44.788;10.366;2022-08-06T19:55:35;31.00;92.40
43607;DHT22;29197;44.788;10.366;2022-08-06T19:58:45;31.00;92.50
43607;DHT22;29197;44.788;10.366;2022-08-06T20:01:54;30.70;92.90
43607;DHT22;29197;44.788;10.366;2022-08-06T20:05:02;30.60;93.10
43607;DHT22;29197;44.788;10.366;2022-08-06T20:11:13;30.40;93.00
43607;DHT22;29197;44.788;10.366;2022-08-06T20:14:22;30.50;93.50
43607;DHT22;29197;44.788;10.366;2022-08-06T20:17:12;30.60;93.50
43607;DHT22;29197;44.788;10.366;2022-08-06T20:20:04;30.50;93.70
43607;DHT22;29197;44.788;10.366;2022-08-06T20:22:55;30.40;93.90
43607;DHT22;29197;44.788;10.366;2022-08-06T20:25:46;30.40;94.10
43607;DHT22;29197;44.788;10.366;2022-08-06T20:28:55;30.40;94.20
43607;DHT22;29197;44.788;10.366;2022-08-06T20:32:04;30.40;94.30
43607;DHT22;29197;44.788;10.366;2022-08-06T20:34:53;30.30;94.40